Time;durP1;ratioP1;P1;durP2;ratioP2;P2;SDS_P1;SDS_P2;PMS_P1;PMS_P2;Temp;Humidity;BMP_temperature;BMP_pressure;BME280_temperature;BME280_humidity;BME280_pressure;Samples;Min_cycle;Max_cycle;Signal;HPM_P1;HPM_P2
2021/04/07 00:00:45;;;;;;;24.08;14.93;;;1.70;99.90;;;;;;5113637;28;20477;-71
2021/04/07 00:03:11;;;;;;;34.13;19.52;;;1.80;99.90;;;;;;5113059;28;20385;-69
2021/04/07 00:05:43;;;;;;;24.38;16.15;;;1.70;99.90;;;;;;5113389;28;20465;-71
2021/04/07 00:08:09;;;;;;;23.48;16.50;;;1.80;99.90;;;;;;5112971;28;20056;-71
2021/04/07 00:10:42;;;;;;;28.80;18.00;;;1.70;99.90;;;;;;5113211;28;20052;-72
2021/04/07 00:13:09;;;;;;;29.67;18.70;;;1.60;99.90;;;;;;5113523;28;20431;-72
2021/04/07 00:15:36;;;;;;;32.28;19.77;;;1.60;99.90;;;;;;5112867;28;20011;-75
2021/04/07 00:18:03;;;;;;;34.72;21.25;;;1.70;99.90;;;;;;5113499;28;20038;-70
2021/04/07 00:20:30;;;;;;;34.78;20.40;;;1.60;99.90;;;;;;5113027;28;20086;-73
2021/04/07 00:22:56;;;;;;;33.58;21.40;;;1.70;99.90;;;;;;5113306;28;20027;-71
2021/04/07 00:25:23;;;;;;;33.50;21.02;;;1.60;99.90;;;;;;5115732;28;20019;-77
2021/04/07 00:27:57;;;;;;;38.28;22.80;;;1.60;99.90;;;;;;5116698;28;20061;-75
2021/04/07 00:30:28;;;;;;;37.92;23.33;;;1.70;99.90;;;;;;5117302;28;20024;-72
2021/04/07 00:32:55;;;;;;;33.75;19.88;;;1.70;99.90;;;;;;5114817;28;20023;-77
2021/04/07 00:35:22;;;;;;;36.90;21.25;;;1.70;99.90;;;;;;5113389;28;20074;-73
2021/04/07 00:37:49;;;;;;;29.55;17.98;;;1.80;99.90;;;;;;5115287;28;20023;-75
2021/04/07 00:40:16;;;;;;;32.72;19.65;;;1.80;99.90;;;;;;5115031;28;20043;-70
2021/04/07 00:42:43;;;;;;;35.50;21.33;;;1.70;99.90;;;;;;5115344;28;20034;-77
2021/04/07 00:45:11;;;;;;;31.50;20.00;;;1.70;99.90;;;;;;5113599;28;20020;-76
2021/04/07 00:47:37;;;;;;;26.70;17.75;;;1.70;99.90;;;;;;5114732;28;20024;-73
2021/04/07 00:50:05;;;;;;;29.25;19.05;;;1.70;99.90;;;;;;5113927;28;20054;-76
2021/04/07 00:52:31;;;;;;;35.08;22.10;;;1.70;99.90;;;;;;5114552;28;20050;-71
2021/04/07 00:54:57;;;;;;;39.08;22.85;;;1.70;99.90;;;;;;5115006;28;20032;-72
2021/04/07 00:57:24;;;;;;;35.17;20.73;;;1.60;99.90;;;;;;5114680;28;20016;-73
2021/04/07 00:59:52;;;;;;;31.00;18.00;;;1.70;99.90;;;;;;5113865;28;20024;-77
2021/04/07 01:02:18;;;;;;;26.83;16.83;;;1.70;99.90;;;;;;5114500;28;20019;-73
2021/04/07 01:04:46;;;;;;;46.72;25.55;;;1.60;99.90;;;;;;5112100;28;20031;-77
2021/04/07 01:07:13;;;;;;;42.38;23.63;;;1.60;99.90;;;;;;5113630;28;20034;-78
2021/04/07 01:09:39;;;;;;;20.95;12.00;;;1.50;99.90;;;;;;5113656;28;20024;-71
2021/04/07 01:12:07;;;;;;;23.33;14.15;;;1.60;99.90;;;;;;5115693;28;20020;-77
2021/04/07 01:14:34;;;;;;;42.08;22.63;;;1.60;99.90;;;;;;5117016;28;20042;-72
2021/04/07 01:17:01;;;;;;;31.55;18.33;;;1.60;99.90;;;;;;5117350;28;20474;-76
2021/04/07 01:19:28;;;;;;;34.10;18.90;;;1.60;99.90;;;;;;5116909;27;20082;-77
2021/04/07 01:21:54;;;;;;;29.35;16.13;;;1.60;99.90;;;;;;5117623;28;20019;-77
2021/04/07 01:24:22;;;;;;;26.13;15.20;;;1.60;99.90;;;;;;5117177;28;20012;-73
2021/04/07 01:26:49;;;;;;;18.42;10.98;;;1.60;99.90;;;;;;5117177;28;20046;-76
2021/04/07 01:29:15;;;;;;;52.33;27.20;;;1.70;99.90;;;;;;5116790;28;20031;-76
2021/04/07 01:32:07;;;;;;;25.58;14.38;;;1.70;99.90;;;;;;5117018;28;20047;-77
2021/04/07 01:34:33;;;;;;;32.63;16.38;;;1.70;99.90;;;;;;5114516;28;20047;-69
2021/04/07 01:37:00;;;;;;;26.17;15.63;;;1.70;99.90;;;;;;5116793;28;20023;-68
2021/04/07 01:39:30;;;;;;;30.60;18.00;;;1.70;99.90;;;;;;5116151;28;20357;-78
2021/04/07 01:41:57;;;;;;;20.42;13.32;;;1.70;99.90;;;;;;5116829;28;20404;-72
2021/04/07 01:44:24;;;;;;;17.83;13.10;;;1.70;99.90;;;;;;5115523;28;20026;-76
2021/04/07 01:46:51;;;;;;;17.98;11.77;;;1.60;99.90;;;;;;5116575;28;20507;-76
2021/04/07 01:49:17;;;;;;;18.33;13.13;;;1.70;99.90;;;;;;5116433;28;20027;-72
2021/04/07 01:51:43;;;;;;;17.60;13.02;;;1.70;99.90;;;;;;5116812;28;20465;-77
2021/04/07 01:54:12;;;;;;;20.45;14.10;;;1.60;99.90;;;;;;5116706;28;20477;-73
2021/04/07 01:56:53;;;;;;;19.35;12.93;;;1.50;99.90;;;;;;5116777;28;20034;-71
2021/04/07 01:59:21;;;;;;;17.98;13.27;;;1.70;99.90;;;;;;5116437;28;20504;-77
2021/04/07 02:01:47;;;;;;;31.95;19.33;;;1.60;99.90;;;;;;5116951;28;20012;-77
2021/04/07 02:04:14;;;;;;;25.05;16.13;;;1.60;99.90;;;;;;5114888;28;20047;-78
2021/04/07 02:06:45;;;;;;;23.38;15.18;;;1.50;99.90;;;;;;5116375;28;20020;-77
2021/04/07 02:09:11;;;;;;;26.77;17.05;;;1.60;99.90;;;;;;5116623;28;20058;-72
2021/04/07 02:11:42;;;;;;;40.45;22.92;;;1.50;99.90;;;;;;5116788;28;20516;-78
2021/04/07 02:14:09;;;;;;;32.35;19.33;;;1.50;99.90;;;;;;5116226;28;20046;-72
2021/04/07 02:16:35;;;;;;;31.95;18.70;;;1.50;99.90;;;;;;5114490;28;20358;-71
2021/04/07 02:19:05;;;;;;;29.80;17.75;;;1.40;99.90;;;;;;5116042;28;20016;-77
2021/04/07 02:21:31;;;;;;;33.97;18.85;;;1.50;99.90;;;;;;5114440;28;20054;-72
2021/04/07 02:23:57;;;;;;;23.17;14.90;;;1.50;99.90;;;;;;5114390;28;20123;-73
2021/04/07 02:26:23;;;;;;;23.83;15.13;;;1.30;99.90;;;;;;5116279;28;20052;-75
2021/04/07 02:28:49;;;;;;;21.90;14.40;;;1.20;99.90;;;;;;5116612;28;20545;-70
2021/04/07 02:31:15;;;;;;;21.05;14.40;;;1.20;99.90;;;;;;5116175;28;20373;-73
2021/04/07 02:33:40;;;;;;;29.90;16.25;;;1.40;99.90;;;;;;5115683;28;20408;-73
2021/04/07 02:36:06;;;;;;;25.75;14.65;;;1.30;99.90;;;;;;5115950;28;20098;-71
2021/04/07 02:38:32;;;;;;;38.30;17.10;;;1.30;99.90;;;;;;5115436;28;20024;-73
2021/04/07 02:40:58;;;;;;;37.47;18.27;;;1.30;99.90;;;;;;5115722;28;20031;-73
2021/04/07 02:43:24;;;;;;;21.98;13.50;;;1.20;99.90;;;;;;5115584;28;20024;-73
2021/04/07 02:45:50;;;;;;;34.58;16.35;;;1.20;99.90;;;;;;5115734;28;20051;-77
2021/04/07 02:48:16;;;;;;;21.67;11.65;;;1.20;99.90;;;;;;5115368;28;20024;-78
2021/04/07 02:50:42;;;;;;;28.58;15.43;;;1.30;99.90;;;;;;5115374;28;20020;-77
2021/04/07 02:53:08;;;;;;;18.10;12.40;;;1.20;99.90;;;;;;5115250;28;20475;-71
2021/04/07 02:55:34;;;;;;;28.92;15.85;;;1.40;99.90;;;;;;5115998;28;20066;-78
2021/04/07 02:58:00;;;;;;;31.85;17.90;;;1.40;99.90;;;;;;5115317;28;20027;-78
2021/04/07 03:00:26;;;;;;;33.90;20.30;;;1.20;99.90;;;;;;5115624;28;20020;-78
2021/04/07 03:02:52;;;;;;;45.38;23.92;;;1.20;99.90;;;;;;5115448;28;20534;-78
2021/04/07 03:05:18;;;;;;;31.90;18.88;;;1.00;99.90;;;;;;5113817;28;20024;-71
2021/04/07 03:07:44;;;;;;;27.08;16.25;;;0.90;99.90;;;;;;5114886;28;20030;-72
2021/04/07 03:10:11;;;;;;;25.95;15.15;;;1.10;99.90;;;;;;5115006;28;20023;-76
2021/04/07 03:12:41;;;;;;;35.08;20.05;;;1.00;99.90;;;;;;5113613;28;20031;-79
2021/04/07 03:15:09;;;;;;;22.50;14.27;;;1.00;99.90;;;;;;5114637;28;20081;-79
2021/04/07 03:17:37;;;;;;;39.60;21.85;;;1.00;99.90;;;;;;5114934;28;20031;-79
2021/04/07 03:20:07;;;;;;;42.53;23.23;;;1.00;99.90;;;;;;5114723;28;20158;-74
2021/04/07 03:22:34;;;;;;;45.55;23.08;;;1.00;99.90;;;;;;5115022;28;20030;-79
2021/04/07 03:25:00;;;;;;;66.40;35.47;;;1.00;99.90;;;;;;5115154;28;20109;-78
2021/04/07 03:27:26;;;;;;;36.13;25.52;;;1.10;99.90;;;;;;5115280;28;20064;-71
2021/04/07 03:29:53;;;;;;;31.98;23.77;;;1.10;99.90;;;;;;5115012;28;20469;-79
2021/04/07 03:32:20;;;;;;;23.00;17.20;;;1.10;99.90;;;;;;5114718;28;20106;-79
2021/04/07 03:34:46;;;;;;;22.50;15.85;;;1.10;99.90;;;;;;5113032;28;20031;-72
2021/04/07 03:37:12;;;;;;;46.03;26.58;;;1.20;99.90;;;;;;5114488;27;20030;-79
2021/04/07 03:39:38;;;;;;;40.25;23.05;;;1.10;99.90;;;;;;5114852;28;20027;-79
2021/04/07 03:42:04;;;;;;;45.30;24.77;;;1.10;99.90;;;;;;5115296;28;20038;-78
2021/04/07 03:44:30;;;;;;;33.55;18.25;;;1.00;99.90;;;;;;5114814;28;20020;-79
2021/04/07 03:46:56;;;;;;;30.30;17.52;;;1.10;99.90;;;;;;5115152;28;20023;-79
2021/04/07 03:49:22;;;;;;;35.78;19.80;;;1.10;99.90;;;;;;5114596;28;20099;-77
2021/04/07 03:51:48;;;;;;;30.10;16.10;;;1.10;99.90;;;;;;5114147;28;20456;-78
2021/04/07 03:54:14;;;;;;;26.77;15.52;;;1.00;99.90;;;;;;5113340;28;20019;-73
2021/04/07 03:56:40;;;;;;;31.55;16.42;;;1.10;99.90;;;;;;5114612;28;20486;-72
2021/04/07 03:59:06;;;;;;;28.67;17.42;;;1.10;99.90;;;;;;5112916;28;20027;-79
2021/04/07 04:01:32;;;;;;;27.27;16.13;;;1.20;99.90;;;;;;5114020;28;20031;-78
2021/04/07 04:03:58;;;;;;;32.72;16.30;;;1.00;99.90;;;;;;5114359;28;20472;-72
2021/04/07 04:06:24;;;;;;;41.63;21.20;;;1.00;99.90;;;;;;5113975;28;20122;-78
2021/04/07 04:08:50;;;;;;;35.55;20.67;;;1.00;99.90;;;;;;5114668;28;20024;-79
2021/04/07 04:11:16;;;;;;;36.05;19.10;;;0.80;99.90;;;;;;5114454;28;20020;-79
2021/04/07 04:13:42;;;;;;;30.70;18.17;;;0.90;99.90;;;;;;5113979;28;20022;-79
2021/04/07 04:16:08;;;;;;;31.30;18.70;;;0.90;99.90;;;;;;5113934;28;20092;-79
2021/04/07 04:18:34;;;;;;;29.23;18.50;;;0.90;99.90;;;;;;5114433;28;20062;-78
2021/04/07 04:21:00;;;;;;;23.35;15.73;;;0.90;99.90;;;;;;5113876;28;20079;-79
2021/04/07 04:23:26;;;;;;;26.90;17.15;;;1.00;99.90;;;;;;5114550;28;20508;-75
2021/04/07 04:25:52;;;;;;;21.95;14.52;;;1.00;99.90;;;;;;5114039;28;20031;-72
2021/04/07 04:28:18;;;;;;;33.38;20.50;;;1.00;99.90;;;;;;5114805;28;20012;-72
2021/04/07 04:30:44;;;;;;;35.85;22.27;;;1.10;99.90;;;;;;5114207;28;20065;-78
2021/04/07 04:33:11;;;;;;;40.25;24.17;;;1.00;99.90;;;;;;5113082;28;20110;-77
2021/04/07 04:35:36;;;;;;;48.22;26.80;;;1.10;99.90;;;;;;5114185;28;20019;-76
2021/04/07 04:38:02;;;;;;;44.65;25.17;;;1.10;99.90;;;;;;5114932;28;20342;-74
2021/04/07 04:40:28;;;;;;;98.38;86.20;;;1.00;99.90;;;;;;5114057;28;20047;-73
2021/04/07 04:42:54;;;;;;;44.65;32.20;;;1.00;99.90;;;;;;5114158;28;20466;-79
2021/04/07 04:45:20;;;;;;;49.85;30.98;;;1.10;99.90;;;;;;5113172;28;20020;-79
2021/04/07 04:47:46;;;;;;;38.88;24.58;;;1.20;99.90;;;;;;5117975;28;20085;-79
2021/04/07 04:50:13;;;;;;;38.15;24.42;;;1.20;99.90;;;;;;5116519;28;20020;-71
2021/04/07 04:52:39;;;;;;;53.03;33.13;;;1.10;99.90;;;;;;5118073;28;20381;-73
2021/04/07 04:55:06;;;;;;;31.27;22.50;;;1.20;99.90;;;;;;5117340;28;20042;-79
2021/04/07 04:57:36;;;;;;;25.23;16.00;;;1.20;99.90;;;;;;5117792;28;20019;-79
2021/04/07 05:00:07;;;;;;;31.17;19.88;;;1.20;99.90;;;;;;5117943;28;20378;-73
2021/04/07 05:02:33;;;;;;;44.83;24.80;;;1.30;99.90;;;;;;5117432;28;20024;-78
2021/04/07 05:04:59;;;;;;;43.45;24.40;;;1.40;99.90;;;;;;5117905;28;20076;-79
2021/04/07 05:07:25;;;;;;;32.83;19.50;;;1.40;99.90;;;;;;5118585;28;20072;-79
2021/04/07 05:09:51;;;;;;;32.03;20.25;;;1.60;99.90;;;;;;5116339;28;20110;-79
2021/04/07 05:12:17;;;;;;;25.48;17.42;;;1.70;99.90;;;;;;5117793;28;20028;-78
2021/04/07 05:14:45;;;;;;;28.67;19.70;;;1.70;99.90;;;;;;5116176;28;20028;-78
2021/04/07 05:17:11;;;;;;;33.47;23.17;;;1.80;99.90;;;;;;5117698;28;20016;-78
2021/04/07 05:19:37;;;;;;;29.50;18.73;;;1.70;99.90;;;;;;5116919;28;20451;-78
2021/04/07 05:22:03;;;;;;;42.17;25.13;;;1.70;99.90;;;;;;5117574;28;20369;-78
2021/04/07 05:24:29;;;;;;;40.42;24.33;;;1.70;99.90;;;;;;5117277;28;20031;-72
2021/04/07 05:26:55;;;;;;;33.00;18.88;;;1.80;99.90;;;;;;5115718;28;20047;-78
2021/04/07 05:29:21;;;;;;;48.78;27.52;;;1.90;99.90;;;;;;5117421;28;20022;-78
2021/04/07 05:31:47;;;;;;;34.60;20.75;;;1.80;99.90;;;;;;5116913;28;20081;-79
2021/04/07 05:34:13;;;;;;;34.40;21.10;;;1.90;99.90;;;;;;5116999;28;20020;-73
2021/04/07 05:36:39;;;;;;;33.88;21.08;;;1.80;99.90;;;;;;5116931;28;20019;-71
2021/04/07 05:39:05;;;;;;;35.60;21.25;;;1.90;99.90;;;;;;5117346;28;20020;-78
2021/04/07 05:41:31;;;;;;;31.60;19.63;;;1.80;99.90;;;;;;5116793;28;20023;-72
2021/04/07 05:43:58;;;;;;;27.58;18.05;;;1.90;99.90;;;;;;5117337;28;20027;-71
2021/04/07 05:46:24;;;;;;;21.48;14.45;;;1.90;99.90;;;;;;5115751;28;20056;-79
2021/04/07 05:48:50;;;;;;;37.22;19.85;;;2.00;99.90;;;;;;5115901;28;20573;-82
2021/04/07 05:51:16;;;;;;;43.78;24.33;;;2.20;99.90;;;;;;5118303;28;20166;-78
2021/04/07 05:53:42;;;;;;;25.67;16.73;;;2.20;99.90;;;;;;5117296;28;20016;-79
2021/04/07 05:56:08;;;;;;;27.38;17.17;;;2.30;99.90;;;;;;5115925;28;20028;-73
2021/04/07 05:58:34;;;;;;;22.38;15.18;;;2.40;99.90;;;;;;5116428;28;20032;-77
2021/04/07 06:01:00;;;;;;;24.10;15.30;;;2.40;99.90;;;;;;5116329;28;20034;-73
2021/04/07 06:03:26;;;;;;;31.80;17.23;;;;;;;;;;5116333;28;20534;-79
2021/04/07 06:05:52;;;;;;;33.30;18.00;;;2.60;99.90;;;;;;5114982;28;20032;-72
2021/04/07 06:08:19;;;;;;;29.63;17.35;;;2.60;99.90;;;;;;5116161;27;20030;-72
2021/04/07 06:10:48;;;;;;;78.93;44.17;;;2.50;99.90;;;;;;5116621;28;20061;-74
2021/04/07 06:13:16;;;;;;;89.50;46.80;;;2.70;99.90;;;;;;5116556;28;20511;-72
2021/04/07 06:15:42;;;;;;;96.00;54.25;;;2.60;99.90;;;;;;5115235;28;20382;-76
2021/04/07 06:18:11;;;;;;;131.65;77.35;;;2.60;99.90;;;;;;5115548;28;20030;-71
2021/04/07 06:20:43;;;;;;;242.00;145.52;;;2.70;99.90;;;;;;5117544;27;20058;-72
2021/04/07 06:23:11;;;;;;;115.00;35.58;;;2.70;99.90;;;;;;5116363;28;20024;-71
2021/04/07 06:25:38;;;;;;;158.45;107.30;;;2.80;99.90;;;;;;5117774;28;20033;-73
2021/04/07 06:28:10;;;;;;;57.97;35.13;;;2.80;99.90;;;;;;5116674;28;20027;-74
2021/04/07 06:30:43;;;;;;;51.10;32.08;;;2.90;99.90;;;;;;5117753;28;20546;-71
2021/04/07 06:33:20;;;;;;;48.72;28.27;;;;;;;;;;5116833;28;20176;-78
2021/04/07 06:35:49;;;;;;;58.42;40.92;;;3.10;99.90;;;;;;5115573;28;20073;-69
2021/04/07 06:38:17;;;;;;;48.42;35.72;;;3.00;99.90;;;;;;5117758;28;20026;-74
2021/04/07 06:40:43;;;;;;;35.00;24.13;;;3.10;99.90;;;;;;5117072;28;20369;-73
2021/04/07 06:43:10;;;;;;;35.28;22.33;;;3.00;99.90;;;;;;5117929;28;20024;-71
2021/04/07 06:45:38;;;;;;;36.78;21.90;;;3.20;99.90;;;;;;5116658;28;20028;-75
2021/04/07 06:48:08;;;;;;;36.03;20.20;;;;;;;;;;5117789;28;20015;-70
2021/04/07 06:50:35;;;;;;;31.13;19.90;;;;;;;;;;5115663;28;20024;-71
2021/04/07 06:53:03;;;;;;;56.85;27.67;;;;;;;;;;5116367;28;20034;-70
2021/04/07 06:55:29;;;;;;;43.40;23.90;;;3.40;99.90;;;;;;5116582;28;20023;-72
2021/04/07 06:57:55;;;;;;;62.83;33.70;;;;;;;;;;5115839;27;20494;-72
2021/04/07 07:00:23;;;;;;;46.47;28.70;;;3.50;99.90;;;;;;5117158;28;20366;-72
2021/04/07 07:03:08;;;;;;;53.58;37.25;;;3.70;99.90;;;;;;5117821;28;20080;-72
2021/04/07 07:05:37;;;;;;;36.75;27.73;;;3.90;99.90;;;;;;5116044;28;20016;-75
2021/04/07 07:08:14;;;;;;;25.33;17.20;;;4.10;99.90;;;;;;5116191;28;20681;-71
2021/04/07 07:10:42;;;;;;;26.58;17.52;;;4.00;99.90;;;;;;5117238;28;20515;-69
2021/04/07 07:13:10;;;;;;;27.90;17.20;;;3.90;99.90;;;;;;5119034;28;20027;-72
2021/04/07 07:15:37;;;;;;;34.13;20.83;;;;;;;;;;5118724;28;20018;-74
2021/04/07 07:18:03;;;;;;;239.15;213.88;;;4.30;99.90;;;;;;5117917;28;20432;-70
2021/04/07 07:20:32;;;;;;;27.80;20.38;;;4.40;99.90;;;;;;5110956;28;20039;-74
2021/04/07 07:22:59;;;;;;;40.78;33.17;;;4.10;99.90;;;;;;5113113;28;20550;-71
2021/04/07 07:25:26;;;;;;;53.55;37.75;;;4.10;99.90;;;;;;5113903;28;20084;-70
2021/04/07 07:28:05;;;;;;;53.08;35.42;;;3.90;99.90;;;;;;5116394;28;20533;-73
2021/04/07 07:30:42;;;;;;;73.43;48.70;;;3.90;99.90;;;;;;5116212;28;20111;-71
2021/04/07 07:33:40;;;;;;;88.53;53.08;;;3.90;99.90;;;;;;5117182;28;20038;-71
2021/04/07 07:36:09;;;;;;;60.80;40.05;;;3.90;99.90;;;;;;5113240;28;20034;-72
2021/04/07 07:38:35;;;;;;;29.60;19.58;;;4.10;99.90;;;;;;5113964;28;20458;-72
2021/04/07 07:41:03;;;;;;;28.35;19.08;;;4.40;99.90;;;;;;5113158;28;20064;-72
2021/04/07 07:43:30;;;;;;;18.85;13.13;;;4.30;99.90;;;;;;5114868;28;20033;-77
2021/04/07 07:45:55;;;;;;;22.80;14.52;;;4.30;99.90;;;;;;5113255;28;20019;-68
2021/04/07 07:48:28;;;;;;;21.30;14.10;;;4.30;99.90;;;;;;5116065;28;20016;-70
2021/04/07 07:50:54;;;;;;;32.63;20.77;;;4.50;99.80;;;;;;5117953;28;20023;-74
2021/04/07 07:53:22;;;;;;;30.98;19.92;;;4.50;99.90;;;;;;5117283;28;20020;-75
2021/04/07 07:55:53;;;;;;;42.60;24.00;;;4.60;99.40;;;;;;5114963;28;20062;-73
2021/04/07 07:58:26;;;;;;;29.50;18.30;;;4.80;98.70;;;;;;5116032;28;20055;-73
2021/04/07 08:01:05;;;;;;;42.00;22.98;;;5.20;99.40;;;;;;5116284;28;20020;-74
2021/04/07 08:03:31;;;;;;;21.00;15.20;;;5.30;98.70;;;;;;5115899;28;20105;-75
2021/04/07 08:06:00;;;;;;;25.15;15.23;;;5.00;98.20;;;;;;5117344;28;20107;-73
2021/04/07 08:08:26;;;;;;;29.50;17.92;;;5.10;98.60;;;;;;5114740;28;20374;-75
2021/04/07 08:10:54;;;;;;;25.60;15.88;;;5.50;98.10;;;;;;5116408;28;20027;-73
2021/04/07 08:13:20;;;;;;;29.35;17.45;;;5.60;98.00;;;;;;5115262;28;20023;-77
2021/04/07 08:15:48;;;;;;;43.10;23.98;;;5.40;97.70;;;;;;5115516;28;20019;-77
2021/04/07 08:18:15;;;;;;;21.85;13.13;;;5.50;98.40;;;;;;5114517;28;20020;-78
2021/04/07 08:20:42;;;;;;;25.15;15.00;;;5.80;97.00;;;;;;5113225;28;20075;-76
2021/04/07 08:23:10;;;;;;;31.48;20.45;;;5.80;97.60;;;;;;5117963;28;20538;-75
2021/04/07 08:25:37;;;;;;;19.55;12.40;;;5.90;97.10;;;;;;5118705;28;20500;-78
2021/04/07 08:28:04;;;;;;;24.08;15.35;;;5.70;96.90;;;;;;5119300;28;20111;-74
2021/04/07 08:30:30;;;;;;;23.67;13.13;;;5.60;97.20;;;;;;5119631;28;20031;-71
2021/04/07 08:45:53;;;;;;;36.42;24.77;;;6.00;97.30;;;;;;5961255;22;20042;-74
2021/04/07 08:48:19;;;;;;;19.75;13.38;;;6.20;97.10;;;;;;5017338;28;20038;-70
2021/04/07 08:50:48;;;;;;;22.42;15.35;;;6.50;96.80;;;;;;5017206;28;20093;-70
2021/04/07 08:53:16;;;;;;;22.92;16.45;;;6.50;96.80;;;;;;5017338;28;20035;-75
2021/04/07 08:55:51;;;;;;;18.80;12.98;;;6.40;96.80;;;;;;5018246;28;20040;-75
2021/04/07 08:58:23;;;;;;;49.78;28.77;;;6.60;96.80;;;;;;5017464;28;20379;-77
2021/04/07 09:00:52;;;;;;;20.05;11.93;;;6.50;96.70;;;;;;5016454;28;20475;-76
2021/04/07 09:03:22;;;;;;;25.02;14.20;;;6.60;96.90;;;;;;5018937;28;20026;-75
2021/04/07 09:05:49;;;;;;;20.52;12.43;;;6.60;96.30;;;;;;5021610;28;20052;-77
2021/04/07 09:08:23;;;;;;;33.22;19.20;;;6.30;96.70;;;;;;5021176;28;20026;-76
2021/04/07 09:10:51;;;;;;;29.77;18.73;;;6.40;96.40;;;;;;5020713;28;20468;-83
2021/04/07 09:13:32;;;;;;;82.15;33.67;;;6.20;96.40;;;;;;5024413;28;20540;-75
2021/04/07 09:16:01;;;;;;;57.00;30.10;;;6.10;97.60;;;;;;5023023;28;20490;-78
2021/04/07 09:18:32;;;;;;;33.90;19.55;;;6.10;97.10;;;;;;5025023;28;20100;-76
2021/04/07 09:20:59;;;;;;;30.30;17.92;;;6.10;96.50;;;;;;5026224;28;20022;-74
2021/04/07 09:23:32;;;;;;;43.60;28.08;;;6.10;97.80;;;;;;5024476;28;20014;-77
2021/04/07 09:26:05;;;;;;;34.50;23.55;;;6.00;97.90;;;;;;5022188;28;20172;-85
2021/04/07 09:28:36;;;;;;;21.20;14.57;;;6.30;97.60;;;;;;5022435;28;20383;-85
2021/04/07 09:31:12;;;;;;;33.13;21.98;;;6.20;97.40;;;;;;5020359;28;20498;-77
2021/04/07 09:33:40;;;;;;;21.05;13.57;;;6.10;97.00;;;;;;5021936;28;20065;-76
2021/04/07 09:36:07;;;;;;;16.17;12.63;;;6.30;97.60;;;;;;5021321;28;20040;-80
2021/04/07 09:38:36;;;;;;;11.98;9.57;;;6.10;97.10;;;;;;5022841;28;20026;-76
2021/04/07 09:41:11;;;;;;;17.55;14.00;;;6.00;96.00;;;;;;5021714;28;20026;-84
2021/04/07 09:43:38;;;;;;;23.70;14.15;;;5.70;97.00;;;;;;5019341;28;20485;-84
2021/04/07 09:46:08;;;;;;;23.88;14.57;;;6.20;96.40;;;;;;5018471;28;20045;-76
2021/04/07 09:48:46;;;;;;;37.00;24.60;;;6.80;96.20;;;;;;5016508;28;20021;-73
2021/04/07 09:51:28;;;;;;;38.70;21.52;;;7.40;95.50;;;;;;5015841;28;20112;-76
2021/04/07 09:54:06;;;;;;;29.92;19.67;;;7.20;96.40;;;;;;5017374;28;20034;-75
2021/04/07 09:56:32;;;;;;;38.08;23.42;;;6.90;94.90;;;;;;5016526;28;20030;-76
2021/04/07 09:58:58;;;;;;;32.83;19.52;;;7.00;94.30;;;;;;5018240;28;20480;-76
2021/04/07 10:01:25;;;;;;;24.92;15.45;;;7.30;94.30;;;;;;5017741;28;20018;-78
2021/04/07 10:03:53;;;;;;;23.98;14.75;;;7.40;93.40;;;;;;5020967;28;20064;-80
2021/04/07 10:06:24;;;;;;;49.67;24.35;;;7.80;93.70;;;;;;5021084;28;20017;-73
2021/04/07 10:09:07;;;;;;;46.65;23.88;;;7.60;90.80;;;;;;5016371;28;20018;-77
2021/04/07 10:11:39;;;;;;;19.38;12.27;;;7.80;94.50;;;;;;5017662;28;20033;-84
2021/04/07 10:14:06;;;;;;;25.83;14.15;;;8.30;92.80;;;;;;5018877;28;20044;-77
2021/04/07 10:16:40;;;;;;;25.60;13.57;;;8.40;93.10;;;;;;5019389;28;20385;-77
2021/04/07 10:19:10;;;;;;;43.20;21.63;;;8.60;89.60;;;;;;5015965;28;20022;-75
2021/04/07 10:21:37;;;;;;;38.78;18.02;;;9.10;92.20;;;;;;5017041;28;20006;-75
2021/04/07 10:24:05;;;;;;;30.02;15.48;;;8.60;89.10;;;;;;5015344;28;20500;-75
2021/04/07 10:26:32;;;;;;;33.47;16.65;;;8.70;91.70;;;;;;5017131;28;20049;-75
2021/04/07 10:29:00;;;;;;;55.95;33.88;;;8.80;89.30;;;;;;5016993;28;20438;-77
2021/04/07 10:31:27;;;;;;;47.17;24.30;;;8.90;84.60;;;;;;5015644;28;20025;-75
2021/04/07 10:34:08;;;;;;;28.70;15.68;;;8.50;86.90;;;;;;5017790;28;20468;-76
2021/04/07 10:36:36;;;;;;;28.42;16.35;;;8.70;90.20;;;;;;5019221;28;20041;-77
2021/04/07 10:39:16;;;;;;;16.92;10.15;;;9.30;91.10;;;;;;5032879;28;20030;-75
2021/04/07 10:41:47;;;;;;;25.10;13.30;;;9.30;86.80;;;;;;5041171;28;20040;-75
2021/04/07 10:44:28;;;;;;;29.83;21.88;;;8.50;82.70;;;;;;5037177;28;20022;-81
2021/04/07 10:46:55;;;;;;;25.17;16.50;;;8.70;90.80;;;;;;5038615;28;20136;-76
2021/04/07 10:49:22;;;;;;;30.52;15.25;;;8.80;91.00;;;;;;5037835;28;20044;-76
2021/04/07 10:52:04;;;;;;;40.75;23.25;;;8.50;84.40;;;;;;5037570;28;20029;-75
2021/04/07 10:54:31;;;;;;;32.05;16.73;;;8.70;86.90;;;;;;5036391;28;20037;-79
2021/04/07 10:57:02;;;;;;;39.05;18.45;;;9.30;90.00;;;;;;5040866;28;20037;-79
2021/04/07 10:59:38;;;;;;;22.23;12.27;;;9.70;91.30;;;;;;5042256;28;20022;-73
2021/04/07 11:02:15;;;;;;;21.35;14.20;;;10.20;83.50;;;;;;5036470;28;20037;-74
2021/04/07 11:04:41;;;;;;;26.90;16.75;;;10.30;83.40;;;;;;5037823;28;20025;-75
2021/04/07 11:07:12;;;;;;;59.33;31.00;;;10.40;80.80;;;;;;5037023;28;20056;-79
2021/04/07 11:09:49;;;;;;;19.88;12.80;;;10.20;74.40;;;;;;5038348;28;20025;-78
2021/04/07 11:12:17;;;;;;;28.35;17.90;;;10.40;71.20;;;;;;5038116;28;20022;-82
2021/04/07 11:14:53;;;;;;;24.95;16.63;;;10.10;74.60;;;;;;5039684;28;20383;-82
2021/04/07 11:17:19;;;;;;;28.90;20.45;;;9.40;65.00;;;;;;5036568;28;20025;-83
2021/04/07 11:19:46;;;;;;;54.20;35.38;;;9.90;70.90;;;;;;5038145;28;20029;-76
2021/04/07 11:22:12;;;;;;;29.35;17.63;;;9.90;79.30;;;;;;5037061;28;20047;-75
2021/04/07 11:24:38;;;;;;;59.95;32.95;;;9.90;80.70;;;;;;5037681;28;20021;-79
2021/04/07 11:27:08;;;;;;;40.80;22.17;;;9.40;69.40;;;;;;5040375;28;20102;-78
2021/04/07 11:29:37;;;;;;;187.60;91.93;;;9.00;78.40;;;;;;5037587;28;20029;-80
2021/04/07 11:32:05;;;;;;;35.40;18.08;;;;;;;;;;5039893;28;20608;-88
2021/04/07 11:34:36;;;;;;;36.15;18.25;;;8.70;86.70;;;;;;5039004;28;20029;-84
2021/04/07 11:37:31;;;;;;;46.40;23.58;;;8.90;87.10;;;;;;5035801;28;20025;-84
2021/04/07 11:42:30;;;;;;;83.70;36.67;;;8.70;78.80;;;;;;5036083;28;20022;-86
2021/04/07 11:44:57;;;;;;;57.70;26.63;;;8.80;83.70;;;;;;5031611;28;20030;-75
2021/04/07 11:47:23;;;;;;;54.95;25.90;;;9.30;76.70;;;;;;5021437;28;20061;-75
2021/04/07 11:49:52;;;;;;;145.55;57.85;;;9.90;80.50;;;;;;5023750;28;20426;-74
2021/04/07 11:52:18;;;;;;;31.25;15.98;;;10.30;69.70;;;;;;5022182;28;20061;-79
2021/04/07 11:54:45;;;;;;;51.90;29.23;;;10.50;74.60;;;;;;5021425;28;20053;-75
2021/04/07 11:57:11;;;;;;;107.65;47.88;;;9.50;68.30;;;;;;5019539;28;20514;-86
2021/04/07 11:59:37;;;;;;;70.25;29.85;;;9.40;70.30;;;;;;5023657;28;20026;-74
2021/04/07 12:02:03;;;;;;;58.15;24.73;;;9.00;67.70;;;;;;5024722;28;20041;-75
2021/04/07 12:04:32;;;;;;;72.43;30.40;;;8.90;73.40;;;;;;5022136;28;20097;-74
2021/04/07 12:06:58;;;;;;;37.42;20.40;;;8.70;77.00;;;;;;5023074;28;20044;-75
2021/04/07 12:09:24;;;;;;;51.50;25.88;;;8.60;75.60;;;;;;5023175;28;20513;-74
2021/04/07 12:11:50;;;;;;;55.80;26.92;;;8.40;75.10;;;;;;5018675;28;20097;-75
2021/04/07 12:14:16;;;;;;;19.13;9.88;;;8.40;82.30;;;;;;5023936;28;20402;-76
2021/04/07 12:16:42;;;;;;;77.45;36.10;;;8.10;78.70;;;;;;5024800;28;20085;-75
2021/04/07 12:19:10;;;;;;;21.67;12.07;;;8.10;75.60;;;;;;5021396;28;20017;-74
2021/04/07 12:21:37;;;;;;;136.40;67.07;;;8.30;73.70;;;;;;5023739;28;20398;-77
2021/04/07 12:24:04;;;;;;;51.15;26.17;;;9.20;78.00;;;;;;5022205;28;20026;-75
2021/04/07 12:26:31;;;;;;;36.88;19.23;;;9.50;81.10;;;;;;5039258;28;20034;-87
2021/04/07 12:28:57;;;;;;;73.80;33.88;;;9.60;75.20;;;;;;5035475;28;20067;-87
2021/04/07 12:31:23;;;;;;;23.70;14.07;;;9.90;73.80;;;;;;5036623;28;20022;-88
2021/04/07 12:33:52;;;;;;;48.80;23.85;;;10.00;72.60;;;;;;5033437;28;20116;-85
2021/04/07 12:36:19;;;;;;;43.22;20.50;;;10.30;68.90;;;;;;5032476;28;20048;-82
2021/04/07 12:38:51;;;;;;;37.17;21.40;;;10.50;68.80;;;;;;5034040;28;20041;-86
2021/04/07 12:41:23;;;;;;;55.75;26.67;;;10.90;66.10;;;;;;5034418;28;20014;-85
2021/04/07 12:43:49;;;;;;;22.10;12.25;;;11.10;66.80;;;;;;5034825;28;20033;-87
2021/04/07 12:46:16;;;;;;;23.73;13.80;;;11.40;65.70;;;;;;5033917;28;20506;-82
2021/04/07 12:48:43;;;;;;;26.80;14.13;;;11.50;64.20;;;;;;5024185;28;20101;-75
2021/04/07 12:51:10;;;;;;;27.48;14.25;;;11.30;68.90;;;;;;5021695;28;20044;-74
2021/04/07 12:53:36;;;;;;;54.30;28.20;;;10.80;66.70;;;;;;5023037;28;20044;-75
2021/04/07 12:56:02;;;;;;;28.92;16.48;;;11.30;71.00;;;;;;5022652;28;20006;-75
2021/04/07 12:58:31;;;;;;;32.75;18.38;;;11.10;65.80;;;;;;5017070;28;20558;-86